Arenopolis, Brazil
Current Conditions -  °F | °C
As of 7:00 AM on Friday 24 Oct 2014 (Local Time) from SBGO Reporting Station
Broken Clouds Broken Clouds  
Wind Chill: 72°   Ceiling: 8000
Heat Index: 72°   Visibility: 6mi
Dew Point: 64°   Wind: 6mph
Humidity: 78%   Direction: 120°ESE
Pressure: 30"   Gusts: NA
Location:  16.39°S, 51.56°W
Report Text: SBGO 240900Z 12005KT 9999 FEW030 BKN080 22/18 Q1016
Loading
Personal Weather Stations






























Interactive Weather Map
Tropical Storm Tracking
New forecast layout! Learn more

10-Day Weather Forecast

Advertisements
Track Severe Weather on mobile